sensor_id;sensor_type;location;lat;lon;timestamp;P1;durP1;ratioP1;P2;durP2;ratioP2
3755;SDS011;1893;52.526;13.360;2024-03-29T00:01:50;0.90;;;0.60;;
3755;SDS011;1893;52.526;13.360;2024-03-29T00:04:15;1.03;;;0.70;;
3755;SDS011;1893;52.526;13.360;2024-03-29T00:06:41;1.33;;;0.70;;
3755;SDS011;1893;52.526;13.360;2024-03-29T00:09:06;1.03;;;0.90;;
3755;SDS011;1893;52.526;13.360;2024-03-29T00:11:32;2.20;;;0.60;;
3755;SDS011;1893;52.526;13.360;2024-03-29T00:13:58;1.30;;;0.57;;
3755;SDS011;1893;52.526;13.360;2024-03-29T00:16:23;1.37;;;0.60;;
3755;SDS011;1893;52.526;13.360;2024-03-29T00:18:50;0.80;;;0.63;;
3755;SDS011;1893;52.526;13.360;2024-03-29T00:21:17;3.37;;;0.80;;
3755;SDS011;1893;52.526;13.360;2024-03-29T00:23:42;1.53;;;0.60;;
3755;SDS011;1893;52.526;13.360;2024-03-29T00:26:10;0.60;;;0.50;;
3755;SDS011;1893;52.526;13.360;2024-03-29T00:28:36;1.30;;;0.90;;
3755;SDS011;1893;52.526;13.360;2024-03-29T00:31:02;1.03;;;0.70;;
3755;SDS011;1893;52.526;13.360;2024-03-29T00:33:28;1.70;;;0.60;;
3755;SDS011;1893;52.526;13.360;2024-03-29T00:35:53;0.80;;;0.70;;
3755;SDS011;1893;52.526;13.360;2024-03-29T00:38:19;1.27;;;0.80;;
3755;SDS011;1893;52.526;13.360;2024-03-29T00:40:44;1.00;;;0.80;;
3755;SDS011;1893;52.526;13.360;2024-03-29T00:43:10;1.67;;;0.60;;
3755;SDS011;1893;52.526;13.360;2024-03-29T00:45:36;2.10;;;0.80;;
3755;SDS011;1893;52.526;13.360;2024-03-29T00:48:01;1.33;;;0.60;;
3755;SDS011;1893;52.526;13.360;2024-03-29T00:50:27;1.40;;;0.90;;
3755;SDS011;1893;52.526;13.360;2024-03-29T00:52:53;1.17;;;0.70;;
3755;SDS011;1893;52.526;13.360;2024-03-29T00:55:18;1.53;;;0.87;;
3755;SDS011;1893;52.526;13.360;2024-03-29T00:57:44;1.17;;;0.70;;
3755;SDS011;1893;52.526;13.360;2024-03-29T01:00:09;1.53;;;0.60;;
3755;SDS011;1893;52.526;13.360;2024-03-29T01:02:35;2.53;;;0.60;;
3755;SDS011;1893;52.526;13.360;2024-03-29T01:05:01;2.83;;;0.60;;
3755;SDS011;1893;52.526;13.360;2024-03-29T01:07:33;6.50;;;0.90;;
3755;SDS011;1893;52.526;13.360;2024-03-29T01:09:59;0.90;;;0.80;;
3755;SDS011;1893;52.526;13.360;2024-03-29T01:12:25;0.87;;;0.77;;
3755;SDS011;1893;52.526;13.360;2024-03-29T01:14:51;1.90;;;0.80;;
3755;SDS011;1893;52.526;13.360;2024-03-29T01:17:17;1.00;;;0.80;;
3755;SDS011;1893;52.526;13.360;2024-03-29T01:19:43;3.40;;;0.80;;
3755;SDS011;1893;52.526;13.360;2024-03-29T01:22:08;1.73;;;1.00;;
3755;SDS011;1893;52.526;13.360;2024-03-29T01:24:34;3.07;;;1.07;;
3755;SDS011;1893;52.526;13.360;2024-03-29T01:27:00;1.00;;;0.80;;
3755;SDS011;1893;52.526;13.360;2024-03-29T01:29:25;1.63;;;1.00;;
3755;SDS011;1893;52.526;13.360;2024-03-29T01:31:52;1.67;;;0.90;;
3755;SDS011;1893;52.526;13.360;2024-03-29T01:34:17;0.93;;;0.80;;
3755;SDS011;1893;52.526;13.360;2024-03-29T01:36:43;2.13;;;0.90;;
3755;SDS011;1893;52.526;13.360;2024-03-29T01:39:08;3.23;;;0.83;;
3755;SDS011;1893;52.526;13.360;2024-03-29T01:41:39;2.23;;;0.80;;
3755;SDS011;1893;52.526;13.360;2024-03-29T01:44:04;1.13;;;0.90;;
3755;SDS011;1893;52.526;13.360;2024-03-29T01:46:30;3.47;;;0.80;;
3755;SDS011;1893;52.526;13.360;2024-03-29T01:48:57;1.10;;;0.90;;
3755;SDS011;1893;52.526;13.360;2024-03-29T01:51:23;3.73;;;0.90;;
3755;SDS011;1893;52.526;13.360;2024-03-29T01:53:50;6.00;;;0.90;;
3755;SDS011;1893;52.526;13.360;2024-03-29T01:56:18;3.97;;;1.30;;
3755;SDS011;1893;52.526;13.360;2024-03-29T01:58:46;3.33;;;1.17;;
3755;SDS011;1893;52.526;13.360;2024-03-29T02:01:14;1.80;;;1.00;;
3755;SDS011;1893;52.526;13.360;2024-03-29T02:03:41;2.40;;;1.30;;
3755;SDS011;1893;52.526;13.360;2024-03-29T02:06:08;1.73;;;1.40;;
3755;SDS011;1893;52.526;13.360;2024-03-29T02:08:35;1.67;;;1.10;;
3755;SDS011;1893;52.526;13.360;2024-03-29T02:11:01;1.57;;;1.17;;
3755;SDS011;1893;52.526;13.360;2024-03-29T02:13:28;2.93;;;1.47;;
3755;SDS011;1893;52.526;13.360;2024-03-29T02:15:54;1.60;;;1.13;;
3755;SDS011;1893;52.526;13.360;2024-03-29T02:18:20;1.60;;;1.10;;
3755;SDS011;1893;52.526;13.360;2024-03-29T02:20:45;1.83;;;1.10;;
3755;SDS011;1893;52.526;13.360;2024-03-29T02:23:14;2.00;;;1.30;;
3755;SDS011;1893;52.526;13.360;2024-03-29T02:25:43;1.40;;;1.30;;
3755;SDS011;1893;52.526;13.360;2024-03-29T02:28:09;1.93;;;1.40;;
3755;SDS011;1893;52.526;13.360;2024-03-29T02:30:35;5.50;;;1.53;;
3755;SDS011;1893;52.526;13.360;2024-03-29T02:33:00;2.43;;;1.50;;
3755;SDS011;1893;52.526;13.360;2024-03-29T02:35:26;1.80;;;1.40;;
3755;SDS011;1893;52.526;13.360;2024-03-29T02:37:52;1.50;;;1.30;;
3755;SDS011;1893;52.526;13.360;2024-03-29T02:40:18;1.63;;;1.47;;
3755;SDS011;1893;52.526;13.360;2024-03-29T02:42:44;1.73;;;1.10;;
3755;SDS011;1893;52.526;13.360;2024-03-29T02:45:10;5.67;;;1.57;;
3755;SDS011;1893;52.526;13.360;2024-03-29T02:47:36;2.80;;;1.20;;
3755;SDS011;1893;52.526;13.360;2024-03-29T02:50:01;2.80;;;1.30;;
3755;SDS011;1893;52.526;13.360;2024-03-29T02:52:28;4.40;;;1.97;;
3755;SDS011;1893;52.526;13.360;2024-03-29T02:54:54;1.57;;;1.47;;
3755;SDS011;1893;52.526;13.360;2024-03-29T02:57:20;1.97;;;1.37;;
3755;SDS011;1893;52.526;13.360;2024-03-29T02:59:45;2.43;;;1.50;;
3755;SDS011;1893;52.526;13.360;2024-03-29T03:02:11;2.87;;;1.73;;
3755;SDS011;1893;52.526;13.360;2024-03-29T03:04:37;1.50;;;1.40;;
3755;SDS011;1893;52.526;13.360;2024-03-29T03:07:02;3.10;;;1.50;;
3755;SDS011;1893;52.526;13.360;2024-03-29T03:09:46;2.00;;;1.57;;
3755;SDS011;1893;52.526;13.360;2024-03-29T03:12:30;2.90;;;2.20;;
3755;SDS011;1893;52.526;13.360;2024-03-29T03:14:57;5.70;;;2.30;;
3755;SDS011;1893;52.526;13.360;2024-03-29T03:17:22;2.20;;;2.00;;
3755;SDS011;1893;52.526;13.360;2024-03-29T03:19:50;4.40;;;1.37;;
3755;SDS011;1893;52.526;13.360;2024-03-29T03:22:17;1.40;;;1.30;;
3755;SDS011;1893;52.526;13.360;2024-03-29T03:24:42;3.37;;;1.60;;
3755;SDS011;1893;52.526;13.360;2024-03-29T03:27:08;2.13;;;1.80;;
3755;SDS011;1893;52.526;13.360;2024-03-29T03:29:34;1.80;;;1.70;;
3755;SDS011;1893;52.526;13.360;2024-03-29T03:31:59;3.17;;;1.73;;
3755;SDS011;1893;52.526;13.360;2024-03-29T03:34:25;3.90;;;1.60;;
3755;SDS011;1893;52.526;13.360;2024-03-29T03:36:52;1.77;;;1.60;;
3755;SDS011;1893;52.526;13.360;2024-03-29T03:39:17;2.27;;;1.30;;
3755;SDS011;1893;52.526;13.360;2024-03-29T03:41:43;4.33;;;1.43;;
3755;SDS011;1893;52.526;13.360;2024-03-29T03:44:08;6.10;;;2.00;;
3755;SDS011;1893;52.526;13.360;2024-03-29T03:46:34;2.77;;;1.53;;
3755;SDS011;1893;52.526;13.360;2024-03-29T03:49:00;2.40;;;1.40;;
3755;SDS011;1893;52.526;13.360;2024-03-29T03:51:25;4.30;;;1.20;;
3755;SDS011;1893;52.526;13.360;2024-03-29T03:53:51;5.53;;;1.37;;
3755;SDS011;1893;52.526;13.360;2024-03-29T03:56:16;3.53;;;1.50;;
3755;SDS011;1893;52.526;13.360;2024-03-29T03:58:43;2.20;;;1.47;;
3755;SDS011;1893;52.526;13.360;2024-03-29T04:01:09;1.90;;;1.40;;
3755;SDS011;1893;52.526;13.360;2024-03-29T04:03:35;3.83;;;1.60;;
3755;SDS011;1893;52.526;13.360;2024-03-29T04:06:04;1.90;;;1.40;;
3755;SDS011;1893;52.526;13.360;2024-03-29T04:08:30;5.83;;;1.70;;
3755;SDS011;1893;52.526;13.360;2024-03-29T04:10:56;5.43;;;1.60;;
3755;SDS011;1893;52.526;13.360;2024-03-29T04:13:22;2.93;;;1.33;;
3755;SDS011;1893;52.526;13.360;2024-03-29T04:15:47;1.50;;;1.40;;
3755;SDS011;1893;52.526;13.360;2024-03-29T04:18:13;3.97;;;1.50;;
3755;SDS011;1893;52.526;13.360;2024-03-29T04:20:39;3.83;;;1.67;;
3755;SDS011;1893;52.526;13.360;2024-03-29T04:23:05;2.20;;;1.50;;
3755;SDS011;1893;52.526;13.360;2024-03-29T04:25:31;2.17;;;1.60;;
3755;SDS011;1893;52.526;13.360;2024-03-29T04:27:57;2.20;;;1.23;;
3755;SDS011;1893;52.526;13.360;2024-03-29T04:30:23;3.17;;;2.07;;
3755;SDS011;1893;52.526;13.360;2024-03-29T04:32:49;4.00;;;1.40;;
3755;SDS011;1893;52.526;13.360;2024-03-29T04:35:15;1.67;;;1.10;;
3755;SDS011;1893;52.526;13.360;2024-03-29T04:37:40;4.00;;;1.40;;
3755;SDS011;1893;52.526;13.360;2024-03-29T04:40:06;1.50;;;1.40;;
3755;SDS011;1893;52.526;13.360;2024-03-29T04:42:32;1.53;;;1.23;;
3755;SDS011;1893;52.526;13.360;2024-03-29T04:44:58;5.40;;;1.37;;
3755;SDS011;1893;52.526;13.360;2024-03-29T04:47:23;2.80;;;1.23;;
3755;SDS011;1893;52.526;13.360;2024-03-29T04:49:49;2.80;;;1.33;;
3755;SDS011;1893;52.526;13.360;2024-03-29T04:52:15;1.60;;;1.50;;
3755;SDS011;1893;52.526;13.360;2024-03-29T04:54:40;1.53;;;1.27;;
3755;SDS011;1893;52.526;13.360;2024-03-29T04:57:06;2.37;;;1.10;;
3755;SDS011;1893;52.526;13.360;2024-03-29T04:59:32;5.80;;;1.33;;
3755;SDS011;1893;52.526;13.360;2024-03-29T05:01:58;2.93;;;1.47;;
3755;SDS011;1893;52.526;13.360;2024-03-29T05:04:24;1.40;;;1.10;;
3755;SDS011;1893;52.526;13.360;2024-03-29T05:06:51;2.47;;;1.17;;
3755;SDS011;1893;52.526;13.360;2024-03-29T05:09:18;2.87;;;1.60;;
3755;SDS011;1893;52.526;13.360;2024-03-29T05:11:43;1.90;;;1.30;;
3755;SDS011;1893;52.526;13.360;2024-03-29T05:14:09;1.77;;;1.30;;
3755;SDS011;1893;52.526;13.360;2024-03-29T05:16:35;2.50;;;1.20;;
3755;SDS011;1893;52.526;13.360;2024-03-29T05:19:01;1.13;;;1.00;;
3755;SDS011;1893;52.526;13.360;2024-03-29T05:21:26;2.43;;;1.20;;
3755;SDS011;1893;52.526;13.360;2024-03-29T05:23:52;2.40;;;1.10;;
3755;SDS011;1893;52.526;13.360;2024-03-29T05:26:18;2.17;;;1.10;;
3755;SDS011;1893;52.526;13.360;2024-03-29T05:28:43;2.80;;;1.20;;
3755;SDS011;1893;52.526;13.360;2024-03-29T05:31:13;2.00;;;0.90;;
3755;SDS011;1893;52.526;13.360;2024-03-29T05:33:42;2.63;;;1.27;;
3755;SDS011;1893;52.526;13.360;2024-03-29T05:36:08;2.13;;;1.10;;
3755;SDS011;1893;52.526;13.360;2024-03-29T05:38:36;1.73;;;1.10;;
3755;SDS011;1893;52.526;13.360;2024-03-29T05:43:48;1.70;;;1.20;;
3755;SDS011;1893;52.526;13.360;2024-03-29T05:46:15;2.00;;;1.20;;
3755;SDS011;1893;52.526;13.360;2024-03-29T05:48:41;1.63;;;1.10;;
3755;SDS011;1893;52.526;13.360;2024-03-29T05:51:07;1.97;;;1.10;;
3755;SDS011;1893;52.526;13.360;2024-03-29T05:53:33;1.23;;;1.10;;
3755;SDS011;1893;52.526;13.360;2024-03-29T05:58:48;2.60;;;1.10;;
3755;SDS011;1893;52.526;13.360;2024-03-29T06:01:14;2.20;;;1.00;;
3755;SDS011;1893;52.526;13.360;2024-03-29T06:03:40;1.37;;;1.20;;
3755;SDS011;1893;52.526;13.360;2024-03-29T06:06:05;4.77;;;1.37;;
3755;SDS011;1893;52.526;13.360;2024-03-29T06:08:32;4.70;;;1.20;;
3755;SDS011;1893;52.526;13.360;2024-03-29T06:10:58;2.33;;;1.30;;
3755;SDS011;1893;52.526;13.360;2024-03-29T06:13:24;4.00;;;1.23;;
3755;SDS011;1893;52.526;13.360;2024-03-29T06:16:12;3.23;;;1.07;;
3755;SDS011;1893;52.526;13.360;2024-03-29T06:18:57;1.20;;;0.90;;
3755;SDS011;1893;52.526;13.360;2024-03-29T06:21:23;1.00;;;0.90;;
3755;SDS011;1893;52.526;13.360;2024-03-29T06:23:48;1.73;;;1.00;;
3755;SDS011;1893;52.526;13.360;2024-03-29T06:26:14;1.10;;;0.93;;
3755;SDS011;1893;52.526;13.360;2024-03-29T06:28:40;3.77;;;1.10;;
3755;SDS011;1893;52.526;13.360;2024-03-29T06:31:05;1.33;;;1.07;;
3755;SDS011;1893;52.526;13.360;2024-03-29T06:33:31;2.00;;;0.90;;
3755;SDS011;1893;52.526;13.360;2024-03-29T06:35:56;3.10;;;1.00;;
3755;SDS011;1893;52.526;13.360;2024-03-29T06:38:22;3.97;;;1.00;;
3755;SDS011;1893;52.526;13.360;2024-03-29T06:40:48;7.50;;;1.43;;
3755;SDS011;1893;52.526;13.360;2024-03-29T06:43:13;3.20;;;0.90;;
3755;SDS011;1893;52.526;13.360;2024-03-29T06:45:40;0.97;;;0.80;;
3755;SDS011;1893;52.526;13.360;2024-03-29T06:48:07;2.30;;;1.10;;
3755;SDS011;1893;52.526;13.360;2024-03-29T06:50:34;1.00;;;0.90;;
3755;SDS011;1893;52.526;13.360;2024-03-29T06:52:59;1.10;;;0.97;;
3755;SDS011;1893;52.526;13.360;2024-03-29T06:55:25;2.17;;;1.23;;
3755;SDS011;1893;52.526;13.360;2024-03-29T06:57:51;1.13;;;1.00;;
3755;SDS011;1893;52.526;13.360;2024-03-29T07:00:17;5.73;;;0.90;;
3755;SDS011;1893;52.526;13.360;2024-03-29T07:02:42;1.57;;;0.90;;
3755;SDS011;1893;52.526;13.360;2024-03-29T07:05:08;1.77;;;1.37;;
3755;SDS011;1893;52.526;13.360;2024-03-29T07:07:36;3.80;;;0.90;;
3755;SDS011;1893;52.526;13.360;2024-03-29T07:10:02;3.47;;;1.00;;
3755;SDS011;1893;52.526;13.360;2024-03-29T07:12:28;1.70;;;1.00;;
3755;SDS011;1893;52.526;13.360;2024-03-29T07:14:54;2.83;;;1.10;;
3755;SDS011;1893;52.526;13.360;2024-03-29T07:17:20;1.23;;;1.10;;
3755;SDS011;1893;52.526;13.360;2024-03-29T07:19:45;2.07;;;0.90;;
3755;SDS011;1893;52.526;13.360;2024-03-29T07:22:11;1.30;;;0.90;;
3755;SDS011;1893;52.526;13.360;2024-03-29T07:24:37;3.13;;;1.00;;
3755;SDS011;1893;52.526;13.360;2024-03-29T07:27:02;1.83;;;0.90;;
3755;SDS011;1893;52.526;13.360;2024-03-29T07:29:28;2.67;;;1.00;;
3755;SDS011;1893;52.526;13.360;2024-03-29T07:31:54;5.33;;;1.37;;
3755;SDS011;1893;52.526;13.360;2024-03-29T07:34:19;3.80;;;0.90;;
3755;SDS011;1893;52.526;13.360;2024-03-29T07:36:45;2.40;;;1.10;;
3755;SDS011;1893;52.526;13.360;2024-03-29T07:39:11;1.17;;;0.80;;
3755;SDS011;1893;52.526;13.360;2024-03-29T07:41:37;3.70;;;0.80;;
3755;SDS011;1893;52.526;13.360;2024-03-29T07:44:02;1.73;;;1.00;;
3755;SDS011;1893;52.526;13.360;2024-03-29T07:46:32;3.50;;;1.00;;
3755;SDS011;1893;52.526;13.360;2024-03-29T07:48:59;1.10;;;0.80;;
3755;SDS011;1893;52.526;13.360;2024-03-29T07:51:25;3.00;;;0.97;;
3755;SDS011;1893;52.526;13.360;2024-03-29T07:53:51;2.20;;;0.87;;
3755;SDS011;1893;52.526;13.360;2024-03-29T07:56:17;1.83;;;0.90;;
3755;SDS011;1893;52.526;13.360;2024-03-29T07:58:43;6.00;;;1.30;;
3755;SDS011;1893;52.526;13.360;2024-03-29T08:01:09;2.50;;;1.00;;
3755;SDS011;1893;52.526;13.360;2024-03-29T08:03:35;3.17;;;0.87;;
3755;SDS011;1893;52.526;13.360;2024-03-29T08:06:01;1.30;;;0.80;;
3755;SDS011;1893;52.526;13.360;2024-03-29T08:08:31;2.50;;;0.93;;
3755;SDS011;1893;52.526;13.360;2024-03-29T08:10:57;1.93;;;0.90;;
3755;SDS011;1893;52.526;13.360;2024-03-29T08:13:23;3.13;;;0.93;;
3755;SDS011;1893;52.526;13.360;2024-03-29T08:15:59;3.57;;;1.00;;
3755;SDS011;1893;52.526;13.360;2024-03-29T08:18:26;5.77;;;1.63;;
3755;SDS011;1893;52.526;13.360;2024-03-29T08:20:52;2.33;;;1.00;;
3755;SDS011;1893;52.526;13.360;2024-03-29T08:23:20;1.57;;;0.93;;
3755;SDS011;1893;52.526;13.360;2024-03-29T08:25:46;2.27;;;0.90;;
3755;SDS011;1893;52.526;13.360;2024-03-29T08:28:11;5.20;;;1.10;;
3755;SDS011;1893;52.526;13.360;2024-03-29T08:30:37;1.70;;;1.17;;
3755;SDS011;1893;52.526;13.360;2024-03-29T08:33:03;3.43;;;1.73;;
3755;SDS011;1893;52.526;13.360;2024-03-29T08:35:32;2.47;;;1.40;;
3755;SDS011;1893;52.526;13.360;2024-03-29T08:37:58;1.63;;;1.10;;
3755;SDS011;1893;52.526;13.360;2024-03-29T08:40:25;4.00;;;1.10;;
3755;SDS011;1893;52.526;13.360;2024-03-29T08:42:53;2.50;;;1.10;;
3755;SDS011;1893;52.526;13.360;2024-03-29T08:45:20;3.10;;;1.10;;
3755;SDS011;1893;52.526;13.360;2024-03-29T08:47:46;1.83;;;1.00;;
3755;SDS011;1893;52.526;13.360;2024-03-29T08:50:12;1.70;;;1.10;;
3755;SDS011;1893;52.526;13.360;2024-03-29T08:52:39;1.97;;;0.90;;
3755;SDS011;1893;52.526;13.360;2024-03-29T08:55:05;0.97;;;0.90;;
3755;SDS011;1893;52.526;13.360;2024-03-29T08:57:31;3.37;;;1.10;;
3755;SDS011;1893;52.526;13.360;2024-03-29T08:59:57;4.47;;;1.00;;
3755;SDS011;1893;52.526;13.360;2024-03-29T09:02:23;2.13;;;0.90;;
3755;SDS011;1893;52.526;13.360;2024-03-29T09:04:48;1.77;;;1.07;;
3755;SDS011;1893;52.526;13.360;2024-03-29T09:07:14;1.50;;;1.17;;
3755;SDS011;1893;52.526;13.360;2024-03-29T09:09:40;1.10;;;1.00;;
3755;SDS011;1893;52.526;13.360;2024-03-29T09:12:07;2.80;;;1.10;;
3755;SDS011;1893;52.526;13.360;2024-03-29T09:14:33;2.07;;;1.10;;
3755;SDS011;1893;52.526;13.360;2024-03-29T09:16:59;5.40;;;1.13;;
3755;SDS011;1893;52.526;13.360;2024-03-29T09:19:24;0.93;;;0.87;;
3755;SDS011;1893;52.526;13.360;2024-03-29T09:21:50;2.30;;;1.23;;
3755;SDS011;1893;52.526;13.360;2024-03-29T09:24:16;1.87;;;0.80;;
3755;SDS011;1893;52.526;13.360;2024-03-29T09:26:48;3.77;;;1.27;;
3755;SDS011;1893;52.526;13.360;2024-03-29T09:29:14;1.87;;;0.83;;
3755;SDS011;1893;52.526;13.360;2024-03-29T09:31:41;2.00;;;0.90;;
3755;SDS011;1893;52.526;13.360;2024-03-29T09:34:06;2.50;;;0.90;;
3755;SDS011;1893;52.526;13.360;2024-03-29T09:36:33;4.57;;;0.90;;
3755;SDS011;1893;52.526;13.360;2024-03-29T09:38:59;1.10;;;1.00;;
3755;SDS011;1893;52.526;13.360;2024-03-29T09:41:25;6.67;;;0.97;;
3755;SDS011;1893;52.526;13.360;2024-03-29T09:43:53;2.13;;;0.90;;
3755;SDS011;1893;52.526;13.360;2024-03-29T09:46:22;1.07;;;0.83;;
3755;SDS011;1893;52.526;13.360;2024-03-29T09:48:50;2.50;;;0.90;;
3755;SDS011;1893;52.526;13.360;2024-03-29T09:51:16;1.90;;;0.90;;
3755;SDS011;1893;52.526;13.360;2024-03-29T09:53:43;0.93;;;0.70;;
3755;SDS011;1893;52.526;13.360;2024-03-29T09:56:09;1.27;;;0.87;;
3755;SDS011;1893;52.526;13.360;2024-03-29T09:58:35;2.33;;;0.90;;
3755;SDS011;1893;52.526;13.360;2024-03-29T10:01:03;1.33;;;1.00;;
3755;SDS011;1893;52.526;13.360;2024-03-29T10:03:30;2.23;;;1.13;;
3755;SDS011;1893;52.526;13.360;2024-03-29T10:05:59;2.50;;;0.90;;
3755;SDS011;1893;52.526;13.360;2024-03-29T10:08:26;1.07;;;0.90;;
3755;SDS011;1893;52.526;13.360;2024-03-29T10:10:52;1.10;;;0.87;;
3755;SDS011;1893;52.526;13.360;2024-03-29T10:13:19;1.10;;;0.80;;
3755;SDS011;1893;52.526;13.360;2024-03-29T10:15:45;4.63;;;0.80;;
3755;SDS011;1893;52.526;13.360;2024-03-29T10:18:14;1.00;;;0.90;;
3755;SDS011;1893;52.526;13.360;2024-03-29T10:20:40;1.03;;;0.70;;
3755;SDS011;1893;52.526;13.360;2024-03-29T10:23:06;1.10;;;1.00;;
3755;SDS011;1893;52.526;13.360;2024-03-29T10:25:33;3.17;;;0.80;;
3755;SDS011;1893;52.526;13.360;2024-03-29T10:27:59;2.23;;;1.00;;
3755;SDS011;1893;52.526;13.360;2024-03-29T10:30:27;5.13;;;1.00;;
3755;SDS011;1893;52.526;13.360;2024-03-29T10:32:56;4.30;;;1.00;;
3755;SDS011;1893;52.526;13.360;2024-03-29T10:35:22;1.73;;;1.00;;
3755;SDS011;1893;52.526;13.360;2024-03-29T10:37:54;1.30;;;0.80;;
3755;SDS011;1893;52.526;13.360;2024-03-29T10:40:20;1.27;;;0.80;;
3755;SDS011;1893;52.526;13.360;2024-03-29T10:42:49;1.00;;;0.80;;
3755;SDS011;1893;52.526;13.360;2024-03-29T10:45:15;2.40;;;1.00;;
3755;SDS011;1893;52.526;13.360;2024-03-29T10:47:42;2.60;;;1.10;;
3755;SDS011;1893;52.526;13.360;2024-03-29T10:50:12;1.70;;;0.77;;
3755;SDS011;1893;52.526;13.360;2024-03-29T10:52:41;1.13;;;0.80;;
3755;SDS011;1893;52.526;13.360;2024-03-29T10:55:10;1.20;;;0.90;;
3755;SDS011;1893;52.526;13.360;2024-03-29T10:57:38;0.90;;;0.80;;
3755;SDS011;1893;52.526;13.360;2024-03-29T11:00:12;1.40;;;0.90;;
3755;SDS011;1893;52.526;13.360;2024-03-29T11:05:34;1.00;;;0.80;;
3755;SDS011;1893;52.526;13.360;2024-03-29T11:08:01;1.90;;;0.87;;
3755;SDS011;1893;52.526;13.360;2024-03-29T11:13:17;3.10;;;0.70;;
3755;SDS011;1893;52.526;13.360;2024-03-29T11:15:47;1.60;;;1.10;;
3755;SDS011;1893;52.526;13.360;2024-03-29T11:18:15;1.43;;;0.70;;
3755;SDS011;1893;52.526;13.360;2024-03-29T11:20:44;1.43;;;0.90;;
3755;SDS011;1893;52.526;13.360;2024-03-29T11:23:16;0.97;;;0.80;;
3755;SDS011;1893;52.526;13.360;2024-03-29T11:25:54;1.20;;;0.87;;
3755;SDS011;1893;52.526;13.360;2024-03-29T11:28:32;1.47;;;0.90;;
3755;SDS011;1893;52.526;13.360;2024-03-29T11:31:03;2.13;;;1.10;;
3755;SDS011;1893;52.526;13.360;2024-03-29T11:33:31;0.90;;;0.80;;
3755;SDS011;1893;52.526;13.360;2024-03-29T11:38:37;3.23;;;0.87;;
3755;SDS011;1893;52.526;13.360;2024-03-29T11:41:05;3.00;;;0.80;;
3755;SDS011;1893;52.526;13.360;2024-03-29T11:43:48;1.70;;;0.90;;
3755;SDS011;1893;52.526;13.360;2024-03-29T11:46:15;1.30;;;0.93;;
3755;SDS011;1893;52.526;13.360;2024-03-29T11:48:41;1.10;;;0.90;;
3755;SDS011;1893;52.526;13.360;2024-03-29T11:51:07;0.80;;;0.80;;
3755;SDS011;1893;52.526;13.360;2024-03-29T11:53:35;5.63;;;0.90;;
3755;SDS011;1893;52.526;13.360;2024-03-29T11:56:02;1.57;;;0.73;;
3755;SDS011;1893;52.526;13.360;2024-03-29T11:58:28;1.97;;;1.00;;
3755;SDS011;1893;52.526;13.360;2024-03-29T12:00:56;0.90;;;0.80;;
3755;SDS011;1893;52.526;13.360;2024-03-29T12:03:22;1.17;;;1.00;;
3755;SDS011;1893;52.526;13.360;2024-03-29T12:05:50;2.00;;;1.13;;
3755;SDS011;1893;52.526;13.360;2024-03-29T12:08:21;0.70;;;0.60;;
3755;SDS011;1893;52.526;13.360;2024-03-29T12:10:47;0.90;;;0.73;;
3755;SDS011;1893;52.526;13.360;2024-03-29T12:13:15;1.97;;;0.90;;
3755;SDS011;1893;52.526;13.360;2024-03-29T12:15:42;1.10;;;0.93;;
3755;SDS011;1893;52.526;13.360;2024-03-29T12:18:08;2.50;;;0.70;;
3755;SDS011;1893;52.526;13.360;2024-03-29T12:20:35;1.00;;;0.80;;
3755;SDS011;1893;52.526;13.360;2024-03-29T12:23:04;5.53;;;0.90;;
3755;SDS011;1893;52.526;13.360;2024-03-29T12:25:31;1.10;;;1.00;;
3755;SDS011;1893;52.526;13.360;2024-03-29T12:27:58;0.90;;;0.70;;
3755;SDS011;1893;52.526;13.360;2024-03-29T12:30:24;1.10;;;0.90;;
3755;SDS011;1893;52.526;13.360;2024-03-29T12:33:07;1.40;;;1.00;;
3755;SDS011;1893;52.526;13.360;2024-03-29T12:35:36;1.97;;;0.90;;
3755;SDS011;1893;52.526;13.360;2024-03-29T12:38:02;1.27;;;0.87;;
3755;SDS011;1893;52.526;13.360;2024-03-29T12:40:30;0.77;;;0.77;;
3755;SDS011;1893;52.526;13.360;2024-03-29T12:43:04;1.00;;;0.77;;
3755;SDS011;1893;52.526;13.360;2024-03-29T12:45:31;2.20;;;1.17;;
3755;SDS011;1893;52.526;13.360;2024-03-29T12:47:57;2.03;;;1.00;;
3755;SDS011;1893;52.526;13.360;2024-03-29T12:50:26;2.60;;;0.90;;
3755;SDS011;1893;52.526;13.360;2024-03-29T12:52:57;1.77;;;1.10;;
3755;SDS011;1893;52.526;13.360;2024-03-29T12:55:24;1.70;;;0.90;;
3755;SDS011;1893;52.526;13.360;2024-03-29T12:58:01;2.10;;;0.90;;
3755;SDS011;1893;52.526;13.360;2024-03-29T13:00:29;2.50;;;0.90;;
3755;SDS011;1893;52.526;13.360;2024-03-29T13:02:55;6.00;;;1.50;;
3755;SDS011;1893;52.526;13.360;2024-03-29T13:05:21;2.10;;;0.80;;
3755;SDS011;1893;52.526;13.360;2024-03-29T13:07:47;1.20;;;0.93;;
3755;SDS011;1893;52.526;13.360;2024-03-29T13:10:13;1.77;;;0.80;;
3755;SDS011;1893;52.526;13.360;2024-03-29T13:12:42;1.53;;;0.90;;
3755;SDS011;1893;52.526;13.360;2024-03-29T13:15:18;0.90;;;0.70;;
3755;SDS011;1893;52.526;13.360;2024-03-29T13:17:46;0.80;;;0.70;;
3755;SDS011;1893;52.526;13.360;2024-03-29T13:20:13;1.53;;;0.80;;
3755;SDS011;1893;52.526;13.360;2024-03-29T13:22:40;0.83;;;0.80;;
3755;SDS011;1893;52.526;13.360;2024-03-29T13:25:07;1.97;;;0.87;;
3755;SDS011;1893;52.526;13.360;2024-03-29T13:27:36;0.90;;;0.80;;
3755;SDS011;1893;52.526;13.360;2024-03-29T13:30:05;1.53;;;0.80;;
3755;SDS011;1893;52.526;13.360;2024-03-29T13:32:32;2.50;;;0.80;;
3755;SDS011;1893;52.526;13.360;2024-03-29T13:34:59;2.70;;;0.87;;
3755;SDS011;1893;52.526;13.360;2024-03-29T13:37:25;1.47;;;0.90;;
3755;SDS011;1893;52.526;13.360;2024-03-29T13:39:55;1.83;;;0.77;;
3755;SDS011;1893;52.526;13.360;2024-03-29T13:42:20;1.17;;;0.80;;
3755;SDS011;1893;52.526;13.360;2024-03-29T13:44:50;1.80;;;0.90;;
3755;SDS011;1893;52.526;13.360;2024-03-29T13:47:17;1.87;;;1.00;;
3755;SDS011;1893;52.526;13.360;2024-03-29T13:49:43;1.03;;;0.80;;
3755;SDS011;1893;52.526;13.360;2024-03-29T13:52:10;2.13;;;0.90;;
3755;SDS011;1893;52.526;13.360;2024-03-29T13:54:37;1.80;;;0.80;;
3755;SDS011;1893;52.526;13.360;2024-03-29T13:57:02;2.73;;;0.93;;
3755;SDS011;1893;52.526;13.360;2024-03-29T13:59:31;2.27;;;0.73;;
3755;SDS011;1893;52.526;13.360;2024-03-29T14:01:58;1.63;;;0.90;;
3755;SDS011;1893;52.526;13.360;2024-03-29T14:04:24;1.50;;;1.00;;
3755;SDS011;1893;52.526;13.360;2024-03-29T14:06:49;3.10;;;0.80;;
3755;SDS011;1893;52.526;13.360;2024-03-29T14:09:16;2.03;;;0.90;;
3755;SDS011;1893;52.526;13.360;2024-03-29T14:11:41;2.03;;;1.20;;
3755;SDS011;1893;52.526;13.360;2024-03-29T14:14:10;1.30;;;1.03;;
3755;SDS011;1893;52.526;13.360;2024-03-29T14:16:37;4.60;;;1.93;;
3755;SDS011;1893;52.526;13.360;2024-03-29T14:19:03;1.27;;;0.87;;
3755;SDS011;1893;52.526;13.360;2024-03-29T14:21:29;1.27;;;0.90;;
3755;SDS011;1893;52.526;13.360;2024-03-29T14:23:55;1.17;;;0.90;;
3755;SDS011;1893;52.526;13.360;2024-03-29T14:26:22;1.40;;;0.70;;
3755;SDS011;1893;52.526;13.360;2024-03-29T14:28:48;0.80;;;0.80;;
3755;SDS011;1893;52.526;13.360;2024-03-29T14:31:13;4.00;;;1.03;;
3755;SDS011;1893;52.526;13.360;2024-03-29T14:33:39;1.10;;;0.90;;
3755;SDS011;1893;52.526;13.360;2024-03-29T14:36:05;1.00;;;0.73;;
3755;SDS011;1893;52.526;13.360;2024-03-29T14:38:31;1.20;;;0.97;;
3755;SDS011;1893;52.526;13.360;2024-03-29T14:40:56;2.50;;;0.83;;
3755;SDS011;1893;52.526;13.360;2024-03-29T14:43:22;1.10;;;0.90;;
3755;SDS011;1893;52.526;13.360;2024-03-29T14:45:48;2.03;;;0.93;;
3755;SDS011;1893;52.526;13.360;2024-03-29T14:48:17;0.97;;;0.80;;
3755;SDS011;1893;52.526;13.360;2024-03-29T14:50:43;1.03;;;0.70;;
3755;SDS011;1893;52.526;13.360;2024-03-29T14:53:09;1.00;;;0.83;;
3755;SDS011;1893;52.526;13.360;2024-03-29T14:55:34;0.87;;;0.80;;
3755;SDS011;1893;52.526;13.360;2024-03-29T14:58:04;1.00;;;0.63;;
3755;SDS011;1893;52.526;13.360;2024-03-29T15:00:33;3.77;;;0.80;;
3755;SDS011;1893;52.526;13.360;2024-03-29T15:02:58;4.60;;;0.90;;
3755;SDS011;1893;52.526;13.360;2024-03-29T15:05:24;1.70;;;0.80;;
3755;SDS011;1893;52.526;13.360;2024-03-29T15:07:51;1.60;;;0.80;;
3755;SDS011;1893;52.526;13.360;2024-03-29T15:10:17;3.50;;;1.17;;
3755;SDS011;1893;52.526;13.360;2024-03-29T15:12:44;1.90;;;1.10;;